createdAt,value
2018-04-18T00:00:40.151Z,0
2018-04-18T00:01:40.073Z,0
2018-04-18T00:02:40.075Z,0
2018-04-18T00:03:40.147Z,0
2018-04-18T00:04:40.074Z,0
2018-04-18T00:05:40.148Z,0
2018-04-18T00:06:40.148Z,0
2018-04-18T00:07:40.146Z,0
2018-04-18T00:08:40.081Z,0
2018-04-18T00:09:40.146Z,0
2018-04-18T00:10:40.081Z,0
2018-04-18T00:11:40.082Z,0
2018-04-18T00:12:40.080Z,0
2018-04-18T00:13:40.081Z,0
2018-04-18T00:14:40.153Z,0
2018-04-18T00:15:40.124Z,0
2018-04-18T00:16:40.118Z,0
2018-04-18T00:17:40.130Z,0
2018-04-18T00:18:40.130Z,0
2018-04-18T00:19:40.159Z,0
2018-04-18T00:20:40.071Z,0
2018-04-18T00:21:40.120Z,0
2018-04-18T00:22:40.162Z,0
2018-04-18T00:23:40.130Z,0
2018-04-18T00:24:40.059Z,0
2018-04-18T00:25:40.095Z,0
2018-04-18T00:26:40.094Z,0
2018-04-18T00:27:40.162Z,0
2018-04-18T00:28:40.090Z,0
2018-04-18T00:29:40.091Z,0
2018-04-18T00:30:40.167Z,0
2018-04-18T00:31:40.163Z,0
2018-04-18T00:32:40.092Z,0
2018-04-18T00:33:40.171Z,0
2018-04-18T00:34:40.093Z,0
2018-04-18T00:35:40.124Z,0
2018-04-18T00:36:40.198Z,0
2018-04-18T00:37:40.186Z,0
2018-04-18T00:38:40.202Z,0
2018-04-18T00:39:40.165Z,0
2018-04-18T00:40:40.207Z,0
2018-04-18T00:41:40.132Z,0
2018-04-18T00:42:40.167Z,0
2018-04-18T00:43:40.108Z,0
2018-04-18T00:44:40.167Z,0
2018-04-18T00:45:40.071Z,0
2018-04-18T00:46:40.138Z,0
2018-04-18T00:47:40.197Z,0
2018-04-18T00:48:40.137Z,0
2018-04-18T00:49:40.129Z,0
2018-04-18T00:50:40.178Z,0
2018-04-18T00:51:40.197Z,0
2018-04-18T00:52:40.199Z,0
2018-04-18T00:53:40.143Z,0
2018-04-18T00:54:40.207Z,0
2018-04-18T00:55:40.096Z,0
2018-04-18T00:56:40.218Z,0
2018-04-18T00:57:40.118Z,0
2018-04-18T00:58:40.141Z,0
2018-04-18T00:59:40.100Z,0
2018-04-18T01:00:40.152Z,0
2018-04-18T01:01:40.104Z,0
2018-04-18T01:02:40.234Z,0
2018-04-18T01:03:40.147Z,0
2018-04-18T01:04:40.108Z,0
2018-04-18T01:05:40.193Z,0
2018-04-18T01:06:40.185Z,0
2018-04-18T01:07:40.118Z,0
2018-04-18T01:08:40.115Z,0
2018-04-18T01:09:40.115Z,0
2018-04-18T01:10:40.190Z,0
2018-04-18T01:11:40.120Z,0
2018-04-18T01:12:40.120Z,0
2018-04-18T01:13:40.193Z,0
2018-04-18T01:14:40.192Z,0
2018-04-18T01:15:40.171Z,0
2018-04-18T01:16:40.208Z,0
2018-04-18T01:17:40.219Z,0
2018-04-18T01:18:40.215Z,0
2018-04-18T01:19:40.144Z,0
2018-04-18T01:20:40.220Z,0
2018-04-18T01:21:40.197Z,0
2018-04-18T01:22:40.095Z,0
2018-04-18T01:23:40.234Z,0
2018-04-18T01:24:40.156Z,0
2018-04-18T01:25:40.174Z,0
2018-04-18T01:26:40.196Z,0
2018-04-18T01:27:40.102Z,0
2018-04-18T01:28:40.135Z,0
2018-04-18T01:29:40.177Z,0
2018-04-18T01:30:40.167Z,0
2018-04-18T01:31:40.222Z,0
2018-04-18T01:32:40.245Z,0
2018-04-18T01:33:40.256Z,0
2018-04-18T01:34:40.120Z,0
2018-04-18T01:35:40.202Z,0
2018-04-18T01:36:40.204Z,0
2018-04-18T01:37:40.203Z,0
2018-04-18T01:38:40.169Z,0
2018-04-18T01:39:40.177Z,0
2018-04-18T01:40:40.210Z,0
2018-04-18T01:41:40.168Z,0
2018-04-18T01:42:40.165Z,0
2018-04-18T01:43:40.205Z,0
2018-04-18T01:44:40.128Z,0
2018-04-18T01:45:40.206Z,0
2018-04-18T01:46:40.180Z,0
2018-04-18T01:47:40.245Z,0
2018-04-18T01:48:40.233Z,0
2018-04-18T01:49:40.173Z,0
2018-04-18T01:50:40.129Z,0
2018-04-18T01:51:40.241Z,0
2018-04-18T01:52:40.211Z,0
2018-04-18T01:53:40.176Z,0
2018-04-18T01:54:40.215Z,0
2018-04-18T01:55:40.242Z,0
2018-04-18T01:56:40.190Z,0
2018-04-18T01:57:40.222Z,0
2018-04-18T01:58:40.195Z,0
2018-04-18T01:59:40.192Z,0
2018-04-18T02:00:40.156Z,0
2018-04-18T02:01:40.174Z,0
2018-04-18T02:02:40.138Z,0
2018-04-18T02:03:40.250Z,0
2018-04-18T02:04:40.195Z,0
2018-04-18T02:05:40.144Z,0
2018-04-18T02:06:40.219Z,0
2018-04-18T02:07:40.146Z,0
2018-04-18T02:08:40.216Z,0
2018-04-18T02:09:40.217Z,0
2018-04-18T02:10:40.162Z,0
2018-04-18T02:11:40.216Z,0
2018-04-18T02:12:40.130Z,0
2018-04-18T02:13:40.145Z,0
2018-04-18T02:14:40.131Z,0
2018-04-18T02:15:40.226Z,0
2018-04-18T02:16:40.133Z,0
2018-04-18T02:17:40.221Z,0
2018-04-18T02:18:40.129Z,0
2018-04-18T02:19:40.172Z,0
2018-04-18T02:20:40.227Z,0
2018-04-18T02:21:40.102Z,0
2018-04-18T02:22:40.228Z,0
2018-04-18T02:23:40.225Z,0
2018-04-18T02:24:40.222Z,0
2018-04-18T02:25:40.229Z,0
2018-04-18T02:26:40.138Z,0
2018-04-18T02:27:40.194Z,0
2018-04-18T02:28:40.169Z,0
2018-04-18T02:29:40.174Z,0
2018-04-18T02:30:40.256Z,0
2018-04-18T02:31:40.268Z,0
2018-04-18T02:32:40.236Z,0
2018-04-18T02:33:40.268Z,0
2018-04-18T02:34:40.142Z,0
2018-04-18T02:35:40.161Z,0
2018-04-18T02:36:40.232Z,0
2018-04-18T02:37:40.164Z,0
2018-04-18T02:38:40.231Z,0
2018-04-18T02:39:40.110Z,0
2018-04-18T02:40:40.160Z,0
2018-04-18T02:41:40.147Z,0
2018-04-18T02:42:40.232Z,0
2018-04-18T02:43:40.165Z,0
2018-04-18T02:44:40.164Z,0
2018-04-18T02:45:40.248Z,0
2018-04-18T02:46:40.174Z,0
2018-04-18T02:47:40.181Z,0
2018-04-18T02:48:40.251Z,0
2018-04-18T02:49:40.175Z,0
2018-04-18T02:50:40.264Z,0
2018-04-18T02:51:40.252Z,0
2018-04-18T02:52:40.183Z,0
2018-04-18T02:53:40.259Z,0
2018-04-18T02:54:40.251Z,0
2018-04-18T02:55:40.181Z,0
2018-04-18T02:56:40.254Z,0
2018-04-18T02:57:40.197Z,0
2018-04-18T02:58:40.251Z,0
2018-04-18T02:59:40.256Z,0
2018-04-18T03:00:40.257Z,0
2018-04-18T03:01:40.260Z,0
2018-04-18T03:02:40.258Z,0
2018-04-18T03:03:40.186Z,0
2018-04-18T03:04:40.256Z,0
2018-04-18T03:05:40.155Z,0
2018-04-18T03:06:40.215Z,0
2018-04-18T03:07:40.253Z,0
2018-04-18T03:08:40.197Z,0
2018-04-18T03:09:40.236Z,0
2018-04-18T03:10:40.300Z,0
2018-04-18T03:11:40.318Z,0
2018-04-18T03:12:40.222Z,0
2018-04-18T03:13:40.186Z,0
2018-04-18T03:14:40.258Z,0
2018-04-18T03:15:40.181Z,0
2018-04-18T03:16:40.181Z,0
2018-04-18T03:17:40.258Z,0
2018-04-18T03:18:40.248Z,0
2018-04-18T03:19:40.233Z,0
2018-04-18T03:20:40.292Z,0
2018-04-18T03:21:40.342Z,0
2018-04-18T03:22:40.298Z,0
2018-04-18T03:23:40.190Z,0
2018-04-18T03:24:40.264Z,0
2018-04-18T03:25:40.228Z,0
2018-04-18T03:26:40.272Z,0
2018-04-18T03:27:40.273Z,0
2018-04-18T03:28:40.193Z,0
2018-04-18T03:29:40.296Z,0
2018-04-18T03:30:40.192Z,0
2018-04-18T03:31:40.175Z,0
2018-04-18T03:32:40.274Z,0
2018-04-18T03:33:40.312Z,0
2018-04-18T03:34:40.318Z,0
2018-04-18T03:35:40.301Z,0
2018-04-18T03:36:40.173Z,0
2018-04-18T03:37:40.252Z,0
2018-04-18T03:38:40.276Z,0
2018-04-18T03:39:40.184Z,0
2018-04-18T03:40:40.185Z,4
2018-04-18T03:41:40.300Z,4
2018-04-18T03:42:40.322Z,4
2018-04-18T03:43:40.283Z,0
2018-04-18T03:44:40.246Z,4
2018-04-18T03:45:40.214Z,4
2018-04-18T03:46:40.218Z,8
2018-04-18T03:47:40.290Z,4
2018-04-18T03:48:40.281Z,8
2018-04-18T03:49:40.288Z,8
2018-04-18T03:50:40.220Z,12
2018-04-18T03:51:40.284Z,16
2018-04-18T03:52:40.223Z,16
2018-04-18T03:53:40.227Z,20
2018-04-18T03:54:40.223Z,20
2018-04-18T03:55:40.224Z,28
2018-04-18T03:56:40.265Z,32
2018-04-18T03:57:40.323Z,36
2018-04-18T03:58:40.291Z,44
2018-04-18T03:59:40.245Z,52
2018-04-18T04:00:40.227Z,64
2018-04-18T04:01:40.285Z,72
2018-04-18T04:02:40.327Z,84
2018-04-18T04:04:40.293Z,116
2018-04-18T04:05:40.155Z,132
2018-04-18T04:06:40.260Z,156
2018-04-18T04:07:40.200Z,176
2018-04-18T04:08:40.212Z,200
2018-04-18T04:09:40.149Z,228
2018-04-18T04:10:40.214Z,256
2018-04-18T04:11:40.203Z,292
2018-04-18T04:12:40.246Z,332
2018-04-18T04:13:40.204Z,372
2018-04-18T04:14:40.157Z,416
2018-04-18T04:15:40.217Z,472
2018-04-18T04:16:40.301Z,524
2018-04-18T04:17:40.329Z,584
2018-04-18T04:18:40.364Z,652
2018-04-18T04:19:40.277Z,716
2018-04-18T04:20:40.272Z,792
2018-04-18T04:21:40.204Z,872
2018-04-18T04:22:40.319Z,956
2018-04-18T04:23:40.307Z,1048
2018-04-18T04:24:40.307Z,1148
2018-04-18T04:25:40.269Z,1248
2018-04-18T04:26:40.239Z,1364
2018-04-18T04:27:40.240Z,1476
2018-04-18T04:28:40.242Z,1592
2018-04-18T04:29:40.312Z,1708
2018-04-18T04:30:40.193Z,1836
2018-04-18T04:31:40.312Z,1968
2018-04-18T04:32:40.240Z,2104
2018-04-18T04:33:40.312Z,2216
2018-04-18T04:34:40.247Z,2336
2018-04-18T04:35:40.312Z,2472
2018-04-18T04:36:40.246Z,2608
2018-04-18T04:37:40.316Z,2744
2018-04-18T04:38:40.318Z,2884
2018-04-18T04:39:40.245Z,3032
2018-04-18T04:40:40.314Z,3172
2018-04-18T04:41:40.248Z,3320
2018-04-18T04:42:40.315Z,3464
2018-04-18T04:43:40.317Z,3608
2018-04-18T04:44:40.246Z,3760
2018-04-18T04:45:40.251Z,3908
2018-04-18T04:46:40.317Z,4060
2018-04-18T04:47:40.252Z,4196
2018-04-18T04:48:40.324Z,4352
2018-04-18T04:49:40.257Z,4500
2018-04-18T04:50:40.327Z,4632
2018-04-18T04:51:40.257Z,4764
2018-04-18T04:52:40.319Z,4916
2018-04-18T04:53:40.258Z,5064
2018-04-18T04:54:40.258Z,5208
2018-04-18T04:55:40.259Z,5356
2018-04-18T04:56:40.327Z,5496
2018-04-18T04:57:40.329Z,5644
2018-04-18T04:58:40.331Z,5780
2018-04-18T04:59:40.259Z,5920
2018-04-18T05:00:40.261Z,6064
2018-04-18T05:01:40.215Z,6204
2018-04-18T05:02:40.264Z,6348
2018-04-18T05:03:40.392Z,6488
2018-04-18T05:04:40.333Z,6632
2018-04-18T05:05:40.261Z,6764
2018-04-18T05:06:40.266Z,6904
2018-04-18T05:07:40.338Z,7036
2018-04-18T05:08:40.265Z,7176
2018-04-18T05:09:40.267Z,7300
2018-04-18T05:10:40.338Z,7436
2018-04-18T05:11:40.270Z,7560
2018-04-18T05:12:40.271Z,7700
2018-04-18T05:13:40.341Z,7828
2018-04-18T05:14:40.272Z,7964
2018-04-18T05:15:40.272Z,8084
2018-04-18T05:16:40.413Z,8216
2018-04-18T05:17:40.340Z,8336
2018-04-18T05:18:40.362Z,8468
2018-04-18T05:19:40.337Z,8596
2018-04-18T05:20:40.246Z,8720
2018-04-18T05:21:40.372Z,8852
2018-04-18T05:22:40.309Z,8980
2018-04-18T05:23:40.262Z,9100
2018-04-18T05:24:40.264Z,9212
2018-04-18T05:25:40.251Z,9324
2018-04-18T05:26:40.312Z,9440
2018-04-18T05:27:40.317Z,9564
2018-04-18T05:28:40.381Z,9696
2018-04-18T05:29:40.346Z,9796
2018-04-18T05:30:40.323Z,9844
2018-04-18T05:31:40.318Z,9812
2018-04-18T05:32:40.352Z,9876
2018-04-18T05:33:40.343Z,10060
2018-04-18T05:34:40.256Z,10376
2018-04-18T05:35:40.328Z,10636
2018-04-18T05:36:40.279Z,10784
2018-04-18T05:37:40.359Z,10896
2018-04-18T05:38:40.282Z,11012
2018-04-18T05:39:40.420Z,11156
2018-04-18T05:40:40.289Z,11272
2018-04-18T05:41:40.367Z,11404
2018-04-18T05:42:40.290Z,11540
2018-04-18T05:43:40.349Z,11684
2018-04-18T05:44:40.314Z,11840
2018-04-18T05:45:40.375Z,11996
2018-04-18T05:46:40.292Z,19700
2018-04-18T05:47:40.358Z,36096
2018-04-18T05:48:40.354Z,39872
2018-04-18T05:49:40.379Z,42304
2018-04-18T05:50:40.363Z,42912
2018-04-18T05:51:40.290Z,44576
2018-04-18T05:52:40.360Z,45312
2018-04-18T05:53:40.394Z,43040
2018-04-18T05:54:40.363Z,40288
2018-04-18T05:55:40.293Z,36704
2018-04-18T05:56:40.366Z,34240
2018-04-18T05:57:40.364Z,32224
2018-04-18T05:58:40.371Z,30528
2018-04-18T05:59:40.297Z,31008
2018-04-18T06:00:40.371Z,32320
2018-04-18T06:01:40.367Z,33120
2018-04-18T06:02:40.301Z,35616
2018-04-18T06:03:40.372Z,39040
2018-04-18T06:04:40.274Z,43328
2018-04-18T06:05:40.372Z,43680
2018-04-18T06:06:40.310Z,39136
2018-04-18T06:07:40.335Z,38144
2018-04-18T06:08:40.366Z,38752
2018-04-18T06:09:40.370Z,40064
2018-04-18T06:10:40.276Z,39200
2018-04-18T06:11:40.412Z,41760
2018-04-18T06:12:40.335Z,41024
2018-04-18T06:13:40.346Z,33376
2018-04-18T06:14:40.298Z,33824
2018-04-18T06:15:40.279Z,34656
2018-04-18T06:16:40.283Z,34304
2018-04-18T06:17:40.409Z,34720
2018-04-18T06:18:40.321Z,35808
2018-04-18T06:19:40.252Z,36352
2018-04-18T06:20:40.270Z,35040
2018-04-18T06:21:40.252Z,33312
2018-04-18T06:22:40.269Z,31776
2018-04-18T06:23:40.270Z,31104
2018-04-18T06:24:40.377Z,31936
2018-04-18T06:25:40.290Z,34912
2018-04-18T06:26:40.424Z,41184
2018-04-18T06:27:40.289Z,48608
2018-04-18T06:28:40.427Z,54752
2018-04-18T06:29:40.303Z,59456
2018-04-18T06:30:40.392Z,60640
2018-04-18T06:31:40.390Z,55712
2018-04-18T06:32:40.390Z,47648
2018-04-18T06:33:40.405Z,39488
2018-04-18T06:34:40.352Z,33120
2018-04-18T06:35:40.392Z,29088
2018-04-18T06:36:40.325Z,28576
2018-04-18T06:37:40.392Z,32768
2018-04-18T06:38:40.324Z,43616
2018-04-18T06:39:40.288Z,56544
2018-04-18T06:40:40.329Z,67168
2018-04-18T06:41:40.327Z,73568
2018-04-18T06:42:40.396Z,72096
2018-04-18T06:43:40.327Z,61376
2018-04-18T06:44:40.323Z,50560
2018-04-18T06:45:40.405Z,48928
2018-04-18T06:46:40.417Z,53024
2018-04-18T06:47:40.371Z,60960
2018-04-18T06:48:40.399Z,71872
2018-04-18T06:49:40.377Z,75008
2018-04-18T06:50:40.319Z,73856
2018-04-18T06:51:40.426Z,69440
2018-04-18T06:52:40.439Z,61760
2018-04-18T06:53:40.371Z,53216
2018-04-18T06:54:40.363Z,45920
2018-04-18T06:55:40.373Z,38720
2018-04-18T06:56:40.323Z,35136
2018-04-18T06:57:40.400Z,36000
2018-04-18T06:58:40.398Z,39104
2018-04-18T06:59:40.329Z,42432
2018-04-18T07:00:40.333Z,44960
2018-04-18T07:01:40.346Z,46656
2018-04-18T07:02:40.400Z,47168
2018-04-18T07:03:40.282Z,46400
2018-04-18T07:04:40.317Z,44768
2018-04-18T07:05:40.312Z,43872
2018-04-18T07:06:40.413Z,45184
2018-04-18T07:07:40.342Z,48864
2018-04-18T07:08:40.418Z,53632
2018-04-18T07:09:40.342Z,58176
2018-04-18T07:10:40.416Z,60480
2018-04-18T07:11:40.343Z,60512
2018-04-18T07:12:40.417Z,59904
2018-04-18T07:13:40.449Z,56320
2018-04-18T07:14:40.348Z,53376
2018-04-18T07:15:40.427Z,54112
2018-04-18T07:16:40.404Z,51328
2018-04-18T07:17:40.373Z,54368
2018-04-18T07:18:40.400Z,54304
2018-04-18T07:19:40.285Z,64064
2018-04-18T07:20:40.399Z,71136
2018-04-18T07:21:40.403Z,69632
2018-04-18T07:22:40.283Z,70592
2018-04-18T07:23:40.351Z,72000
2018-04-18T07:24:40.288Z,75808
2018-04-18T07:25:40.412Z,80256
2018-04-18T07:26:40.419Z,82784
2018-04-18T07:27:40.442Z,82976
2018-04-18T07:28:40.444Z,80416
2018-04-18T07:29:40.423Z,76928
2018-04-18T07:30:40.329Z,75776
2018-04-18T07:31:40.364Z,76992
2018-04-18T07:32:40.427Z,79328
2018-04-18T07:33:40.459Z,81184
2018-04-18T07:34:40.447Z,82304
2018-04-18T07:35:40.423Z,83040
2018-04-18T07:36:40.403Z,83136
2018-04-18T07:37:40.391Z,82240
2018-04-18T07:38:40.347Z,81632
2018-04-18T07:39:40.529Z,81952
2018-04-18T07:40:40.410Z,82912
2018-04-18T07:41:40.353Z,84448
2018-04-18T07:42:40.356Z,88000
2018-04-18T07:43:40.401Z,91360
2018-04-18T07:44:40.432Z,93504
2018-04-18T07:45:40.437Z,94592
2018-04-18T07:46:40.480Z,94432
2018-04-18T07:47:40.352Z,92448
2018-04-18T07:48:40.363Z,90464
2018-04-18T07:49:40.473Z,89536
2018-04-18T07:50:40.401Z,88736
2018-04-18T07:51:40.405Z,87936
2018-04-18T07:52:40.412Z,86496
2018-04-18T07:53:40.463Z,86816
2018-04-18T07:54:40.441Z,89600
2018-04-18T07:55:40.364Z,92032
2018-04-18T07:56:40.449Z,93888
2018-04-18T07:57:40.468Z,94816
2018-04-18T07:58:40.378Z,94240
2018-04-18T07:59:40.447Z,91936
2018-04-18T08:00:40.378Z,88992
2018-04-18T08:01:40.377Z,86080
2018-04-18T08:02:40.445Z,82304
2018-04-18T08:03:40.448Z,79424
2018-04-18T08:04:40.427Z,78144
2018-04-18T08:05:40.377Z,78464
2018-04-18T08:06:40.446Z,80544
2018-04-18T08:07:40.475Z,82976
2018-04-18T08:08:40.359Z,85536
2018-04-18T08:09:40.371Z,89216
2018-04-18T08:10:40.490Z,91360
2018-04-18T08:11:40.423Z,92928
2018-04-18T08:12:40.487Z,93312
2018-04-18T08:13:40.470Z,91936
2018-04-18T08:14:40.491Z,90144
2018-04-18T08:15:40.474Z,87008
2018-04-18T08:16:40.438Z,82528
2018-04-18T08:18:40.485Z,73984
2018-04-18T08:19:40.437Z,74080
2018-04-18T08:20:40.478Z,78144
2018-04-18T08:21:40.426Z,85760
2018-04-18T08:22:40.377Z,94400
2018-04-18T08:23:40.427Z,101120
2018-04-18T08:24:40.426Z,103680
2018-04-18T08:25:40.360Z,102880
2018-04-18T08:26:40.421Z,99200
2018-04-18T08:27:40.425Z,94720
2018-04-18T08:28:40.462Z,89536
2018-04-18T08:29:40.431Z,86528
2018-04-18T08:30:40.504Z,86656
2018-04-18T08:31:40.434Z,88608
2018-04-18T08:32:40.440Z,93984
2018-04-18T08:33:40.495Z,100032
2018-04-18T08:34:40.443Z,104672
2018-04-18T08:35:40.506Z,107840
2018-04-18T08:36:40.457Z,108160
2018-04-18T08:37:40.539Z,106912
2018-04-18T08:38:40.373Z,105248
2018-04-18T08:39:40.460Z,102272
2018-04-18T08:40:40.465Z,101088
2018-04-18T08:41:40.388Z,101824
2018-04-18T08:42:40.375Z,104544
2018-04-18T08:43:40.433Z,108320
2018-04-18T08:44:40.462Z,113088
2018-04-18T08:45:40.463Z,116704
2018-04-18T08:46:40.467Z,119616
2018-04-18T08:47:40.378Z,121728
2018-04-18T08:48:40.470Z,122016
2018-04-18T08:49:40.344Z,119424
2018-04-18T08:50:40.468Z,116352
2018-04-18T08:51:40.380Z,113184
2018-04-18T08:52:40.441Z,108736
2018-04-18T08:53:40.433Z,106720
2018-04-18T08:54:40.346Z,108608
2018-04-18T08:55:40.471Z,111072
2018-04-18T08:56:40.479Z,115136
2018-04-18T08:57:40.395Z,119392
2018-04-18T08:58:40.456Z,121792
2018-04-18T08:59:40.477Z,121120
2018-04-18T09:00:40.478Z,117632
2018-04-18T09:01:40.482Z,111872
2018-04-18T09:02:40.451Z,106880
2018-04-18T09:03:40.544Z,104288
2018-04-18T09:04:40.402Z,106496
2018-04-18T09:05:40.481Z,108736
2018-04-18T09:06:40.482Z,114304
2018-04-18T09:07:40.511Z,117792
2018-04-18T09:08:40.389Z,120672
2018-04-18T09:09:40.526Z,119616
2018-04-18T09:10:40.485Z,116192
2018-04-18T09:11:40.461Z,114080
2018-04-18T09:12:40.528Z,116384
2018-04-18T09:13:40.530Z,120928
2018-04-18T09:14:40.465Z,126560
2018-04-18T09:15:40.558Z,131328
2018-04-18T09:16:40.423Z,133600
2018-04-18T09:17:40.513Z,133120
2018-04-18T09:18:40.422Z,130848
2018-04-18T09:19:40.428Z,126688
2018-04-18T09:20:40.454Z,123904
2018-04-18T09:21:40.426Z,124000
2018-04-18T09:22:40.423Z,125472
2018-04-18T09:23:40.497Z,127264
2018-04-18T09:24:40.498Z,128640
2018-04-18T09:25:40.499Z,129600
2018-04-18T09:26:40.427Z,126912
2018-04-18T09:27:40.429Z,123488
2018-04-18T09:28:40.499Z,122176
2018-04-18T09:29:40.501Z,119840
2018-04-18T09:30:40.501Z,121664
2018-04-18T09:31:40.431Z,125408
2018-04-18T09:32:40.430Z,127520
2018-04-18T09:33:40.501Z,127808
2018-04-18T09:34:40.507Z,129344
2018-04-18T09:35:40.500Z,127232
2018-04-18T09:36:40.543Z,125408
2018-04-18T09:37:40.525Z,120672
2018-04-18T09:38:40.540Z,116768
2018-04-18T09:39:40.517Z,115552
2018-04-18T09:40:40.486Z,115264
2018-04-18T09:41:40.461Z,118368
2018-04-18T09:42:40.509Z,121088
2018-04-18T09:43:40.403Z,128640
2018-04-18T09:44:40.436Z,130464
2018-04-18T09:45:40.503Z,132480
2018-04-18T09:46:40.508Z,131424
2018-04-18T09:47:40.537Z,130720
2018-04-18T09:48:40.421Z,128544
2018-04-18T09:49:40.475Z,129920
2018-04-18T09:50:40.471Z,133696
2018-04-18T09:51:40.446Z,135968
2018-04-18T09:52:40.480Z,134016
2018-04-18T09:53:40.537Z,133824
2018-04-18T09:54:40.490Z,130016
2018-04-18T09:55:40.481Z,127360
2018-04-18T09:56:40.450Z,116288
2018-04-18T09:57:40.449Z,125088
2018-04-18T09:58:40.447Z,128352
2018-04-18T09:59:40.506Z,132960
2018-04-18T10:00:40.448Z,137568
2018-04-18T10:01:40.522Z,140384
2018-04-18T10:02:40.449Z,142720
2018-04-18T10:03:40.523Z,141280
2018-04-18T10:04:40.455Z,137728
2018-04-18T10:05:40.523Z,133984
2018-04-18T10:06:40.528Z,133440
2018-04-18T10:07:40.443Z,136576
2018-04-18T10:08:40.512Z,136064
2018-04-18T10:09:40.427Z,137888
2018-04-18T10:10:40.477Z,137824
2018-04-18T10:11:40.426Z,130912
2018-04-18T10:12:40.462Z,128128
2018-04-18T10:13:40.445Z,125024
2018-04-18T10:14:40.529Z,125568
2018-04-18T10:15:40.461Z,125280
2018-04-18T10:16:40.459Z,130752
2018-04-18T10:17:40.528Z,133152
2018-04-18T10:18:40.457Z,134048
2018-04-18T10:19:40.532Z,134144
2018-04-18T10:20:40.465Z,116928
2018-04-18T10:21:40.472Z,126720
2018-04-18T10:22:40.466Z,132928
2018-04-18T10:23:40.535Z,134880
2018-04-18T10:24:40.559Z,131104
2018-04-18T10:25:40.466Z,127872
2018-04-18T10:26:40.549Z,124352
2018-04-18T10:27:40.557Z,132224
2018-04-18T10:28:40.502Z,126208
2018-04-18T10:29:40.435Z,118624
2018-04-18T10:30:40.505Z,126400
2018-04-18T10:31:40.585Z,138688
2018-04-18T10:32:40.442Z,136288
2018-04-18T10:33:40.456Z,135552
2018-04-18T10:34:40.555Z,137088
2018-04-18T10:35:40.499Z,138784
2018-04-18T10:36:40.456Z,137792
2018-04-18T10:37:40.577Z,138528
2018-04-18T10:38:40.512Z,137760
2018-04-18T10:39:40.546Z,138368
2018-04-18T10:40:40.575Z,142528
2018-04-18T10:41:40.502Z,141920
2018-04-18T10:42:40.506Z,139072
2018-04-18T10:43:40.545Z,148448
2018-04-18T10:44:40.587Z,144864
2018-04-18T10:45:40.527Z,138784
2018-04-18T10:46:40.522Z,130208
2018-04-18T10:47:40.570Z,132256
2018-04-18T10:48:40.444Z,130272
2018-04-18T10:49:40.511Z,131776
2018-04-18T10:50:40.481Z,142464
2018-04-18T10:51:40.568Z,140224
2018-04-18T10:52:40.544Z,137408
2018-04-18T10:53:40.567Z,131072
2018-04-18T10:54:40.452Z,122496
2018-04-18T10:55:40.582Z,128960
2018-04-18T10:56:40.568Z,130368
2018-04-18T10:57:40.525Z,133760
2018-04-18T10:58:40.580Z,139616
2018-04-18T10:59:40.555Z,136192
2018-04-18T11:00:40.578Z,136000
2018-04-18T11:01:40.587Z,131200
2018-04-18T11:02:40.452Z,125344
2018-04-18T11:03:40.521Z,122944
2018-04-18T11:04:40.475Z,127456
2018-04-18T11:05:40.593Z,128864
2018-04-18T11:06:40.521Z,133376
2018-04-18T11:07:40.563Z,138208
2018-04-18T11:08:40.496Z,133728
2018-04-18T11:09:40.564Z,131936
2018-04-18T11:10:40.560Z,132832
2018-04-18T11:11:40.469Z,136544
2018-04-18T11:12:40.559Z,138688
2018-04-18T11:13:40.596Z,143840
2018-04-18T11:14:40.603Z,144960
2018-04-18T11:15:40.589Z,145120
2018-04-18T11:16:40.540Z,142720
2018-04-18T11:17:40.450Z,139744
2018-04-18T11:18:40.468Z,138944
2018-04-18T11:19:40.563Z,136832
2018-04-18T11:20:40.509Z,139168
2018-04-18T11:21:40.552Z,143776
2018-04-18T11:22:40.516Z,143904
2018-04-18T11:23:40.505Z,145344
2018-04-18T11:24:40.518Z,142976
2018-04-18T11:25:40.522Z,140704
2018-04-18T11:26:40.476Z,139424
2018-04-18T11:27:40.538Z,139744
2018-04-18T11:28:40.510Z,139552
2018-04-18T11:29:40.469Z,139872
2018-04-18T11:30:40.550Z,130944
2018-04-18T11:31:40.538Z,130816
2018-04-18T11:32:40.602Z,128992
2018-04-18T11:33:40.479Z,129856
2018-04-18T11:34:40.478Z,128544
2018-04-18T11:35:40.539Z,132736
2018-04-18T11:36:40.553Z,134016
2018-04-18T11:37:40.583Z,130976
2018-04-18T11:38:40.513Z,129472
2018-04-18T11:39:40.611Z,125696
2018-04-18T11:40:40.519Z,121664
2018-04-18T11:41:40.516Z,128032
2018-04-18T11:42:40.582Z,131136
2018-04-18T11:43:40.517Z,127296
2018-04-18T11:44:40.587Z,123872
2018-04-18T11:45:40.514Z,122432
2018-04-18T11:46:40.520Z,119072
2018-04-18T11:47:40.564Z,122944
2018-04-18T11:48:40.451Z,124384
2018-04-18T11:49:40.492Z,125120
2018-04-18T11:50:40.576Z,127744
2018-04-18T11:51:40.516Z,124256
2018-04-18T11:52:40.582Z,125600
2018-04-18T11:53:40.476Z,128672
2018-04-18T11:54:40.490Z,132704
2018-04-18T11:55:40.587Z,129472
2018-04-18T11:56:40.473Z,131904
2018-04-18T11:57:40.563Z,129536
2018-04-18T11:58:40.568Z,130592
2018-04-18T11:59:40.627Z,131136
2018-04-18T12:00:40.617Z,129408
2018-04-18T12:01:40.613Z,137600
2018-04-18T12:02:40.617Z,134464
2018-04-18T12:03:40.550Z,131552
2018-04-18T12:04:40.634Z,131744
2018-04-18T12:05:40.570Z,132864
2018-04-18T12:06:40.628Z,131680
2018-04-18T12:07:40.583Z,132992
2018-04-18T12:08:40.452Z,122720
2018-04-18T12:09:40.579Z,125184
2018-04-18T12:10:40.577Z,122624
2018-04-18T12:11:40.495Z,135872
2018-04-18T12:12:40.561Z,140032
2018-04-18T12:13:40.554Z,132960
2018-04-18T12:14:40.576Z,121184
2018-04-18T12:15:40.582Z,131712
2018-04-18T12:16:40.579Z,129984
2018-04-18T12:17:40.641Z,129600
2018-04-18T12:18:40.623Z,136224
2018-04-18T12:19:40.503Z,135328
2018-04-18T12:20:40.607Z,132608
2018-04-18T12:21:40.625Z,131008
2018-04-18T12:22:40.546Z,127168
2018-04-18T12:23:40.582Z,127104
2018-04-18T12:24:40.646Z,130304
2018-04-18T12:25:40.638Z,132928
2018-04-18T12:26:40.590Z,134144
2018-04-18T12:27:40.596Z,132000
2018-04-18T12:28:40.562Z,128928
2018-04-18T12:29:40.601Z,124192
2018-04-18T12:30:40.598Z,121632
2018-04-18T12:31:40.528Z,121664
2018-04-18T12:32:40.523Z,123456
2018-04-18T12:33:40.647Z,121536
2018-04-18T12:34:40.608Z,120896
2018-04-18T12:35:40.614Z,119840
2018-04-18T12:36:40.520Z,118048
2018-04-18T12:37:40.559Z,116160
2018-04-18T12:38:40.618Z,116128
2018-04-18T12:39:40.573Z,114816
2018-04-18T12:40:40.550Z,118208
2018-04-18T12:41:40.618Z,117216
2018-04-18T12:42:40.548Z,123104
2018-04-18T12:43:40.619Z,122496
2018-04-18T12:44:40.556Z,117536
2018-04-18T12:45:40.621Z,114080
2018-04-18T12:46:40.550Z,113472
2018-04-18T12:47:40.589Z,117280
2018-04-18T12:48:40.657Z,120800
2018-04-18T12:49:40.615Z,120032
2018-04-18T12:50:40.624Z,115904
2018-04-18T12:51:40.600Z,109472
2018-04-18T12:52:40.589Z,104032
2018-04-18T12:53:40.623Z,106688
2018-04-18T12:54:40.640Z,110816
2018-04-18T12:55:40.593Z,114304
2018-04-18T12:56:40.656Z,114656
2018-04-18T12:57:40.665Z,114464
2018-04-18T12:58:40.589Z,116576
2018-04-18T12:59:40.591Z,116704
2018-04-18T13:00:40.649Z,120160
2018-04-18T13:01:40.658Z,120000
2018-04-18T13:02:40.590Z,123616
2018-04-18T13:03:40.586Z,119904
2018-04-18T13:04:40.657Z,117184
2018-04-18T13:05:40.598Z,118016
2018-04-18T13:06:40.665Z,121312
2018-04-18T13:07:40.562Z,123424
2018-04-18T13:08:40.568Z,122912
2018-04-18T13:09:40.647Z,125120
2018-04-18T13:10:40.627Z,120736
2018-04-18T13:11:40.641Z,117120
2018-04-18T13:12:40.572Z,114880
2018-04-18T13:13:40.577Z,117152
2018-04-18T13:14:40.643Z,120224
2018-04-18T13:15:40.573Z,117888
2018-04-18T13:16:40.695Z,115200
2018-04-18T13:17:40.569Z,114624
2018-04-18T13:18:40.640Z,110240
2018-04-18T13:20:40.576Z,109216